La Marque, Texas
Current Conditions -  °F | °C
As of 3:52 PM on Thursday 23 Oct 2014 (Local Time) from KGLS Reporting Station
Clear Clear  
Wind Chill: 77°   Ceiling: Unl
Heat Index: 78°   Visibility: 10mi
Dew Point: 55°   Wind: 12mph
Humidity: 46%   Direction: 360°N
Pressure: 30.06"   Gusts: NA
Location:  29.37°N, 94.97°W
Report Text: KGLS 232052Z 36010KT 10SM CLR 25/13 A3006 RMK AO2 SLP180 T02500128 56020
Loading
Personal Weather Stations






























Interactive Weather Map
Tropical Storm Tracking
New forecast layout! Learn more

10-Day Weather Forecast

Advertisements
Track Severe Weather on mobile